Time;durP1;ratioP1;P1;durP2;ratioP2;P2;SDS_P1;SDS_P2;PMS_P1;PMS_P2;Temp;Humidity;BMP_temperature;BMP_pressure;BME280_temperature;BME280_humidity;BME280_pressure;Samples;Min_cycle;Max_cycle;Signal;HPM_P1;HPM_P2
2023/04/30 00:00:15;;;;;;;5.17;4.47;;;10.80;80.80;;;10.68;71.17;98260.91;5054589;28;20492;-77
2023/04/30 00:02:44;;;;;;;6.50;4.37;;;10.80;81.40;;;10.54;71.73;98262.81;5056703;28;20465;-78
2023/04/30 00:05:11;;;;;;;8.83;5.10;;;10.70;81.40;;;10.54;70.97;98259.25;5039321;28;20470;-79
2023/04/30 00:07:41;;;;;;;4.77;4.27;;;10.70;81.50;;;10.75;71.13;98264.44;5051948;28;20447;-79
2023/04/30 00:10:10;;;;;;;5.80;5.10;;;10.80;81.90;;;10.04;70.77;98164.16;5049716;28;20487;-78
2023/04/30 00:12:37;;;;;;;6.03;5.20;;;10.80;81.60;;;10.63;70.74;98261.56;5024195;28;20440;-80
2023/04/30 00:15:05;;;;;;;7.43;5.50;;;10.80;81.70;;;10.78;70.17;98255.09;5038780;28;20491;-78
2023/04/30 00:17:34;;;;;;;6.07;5.37;;;10.80;81.30;;;10.44;70.33;98214.63;5020308;28;20523;-77
2023/04/30 00:20:01;;;;;;;5.60;4.93;;;10.80;81.30;;;10.53;71.54;98263.84;5036720;28;20510;-80
2023/04/30 00:22:28;;;;;;;8.80;5.23;;;10.70;81.70;;;10.52;71.50;98272.16;5012328;28;20495;-80
2023/04/30 00:24:55;;;;;;;8.60;6.30;;;10.70;82.10;;;10.60;71.71;98272.78;5021245;28;20553;-80
2023/04/30 00:27:22;;;;;;;6.27;5.30;;;10.70;82.40;;;10.55;71.03;98269.06;5034759;28;20477;-80
2023/04/30 00:29:50;;;;;;;5.77;5.13;;;10.70;82.00;;;10.44;71.52;98271.34;5039452;28;20449;-80
2023/04/30 00:32:17;;;;;;;5.97;5.00;;;10.60;82.10;;;10.39;72.15;98257.59;5036268;28;20453;-80
2023/04/30 00:34:46;;;;;;;6.27;4.73;;;10.60;82.60;;;10.06;72.41;98204.41;5015149;28;20473;-80
2023/04/30 00:37:13;;;;;;;6.27;5.60;;;10.60;82.80;;;10.44;72.13;98271.34;5016922;28;20456;-81
2023/04/30 00:39:41;;;;;;;7.33;5.33;;;10.60;82.80;;;10.21;71.97;98250.94;5038446;28;20452;-80
2023/04/30 00:42:08;;;;;;;8.07;5.60;;;10.60;82.50;;;10.33;71.76;98258.44;5049031;28;20524;-80
2023/04/30 00:44:35;;;;;;;6.80;5.43;;;10.60;82.50;;;10.26;72.30;98249.50;5050342;28;20501;-80
2023/04/30 00:47:02;;;;;;;6.40;5.20;;;10.60;82.50;;;10.38;72.63;98280.22;5052204;28;20457;-78
2023/04/30 00:49:30;;;;;;;8.60;5.83;;;10.50;82.80;;;10.17;72.90;98284.81;5029175;28;20501;-77
2023/04/30 00:51:58;;;;;;;7.70;5.40;;;10.50;82.80;;;10.29;73.45;98276.09;5029032;28;20480;-79
2023/04/30 00:54:26;;;;;;;6.00;5.40;;;10.40;83.20;;;10.24;73.04;98275.88;5048117;28;20464;-79
2023/04/30 00:56:53;;;;;;;6.27;5.33;;;10.50;83.10;;;10.16;73.67;98277.75;5049600;28;20453;-79
2023/04/30 00:59:21;;;;;;;6.60;5.57;;;10.40;83.20;;;10.06;74.15;98286.25;5040430;28;20501;-76
2023/04/30 01:01:48;;;;;;;6.50;5.40;;;10.30;83.40;;;9.94;74.44;98285.19;5029137;28;20484;-79
2023/04/30 01:04:16;;;;;;;6.90;5.67;;;10.20;83.80;;;9.94;74.50;98276.28;5042155;28;20449;-78
2023/04/30 01:06:43;;;;;;;6.67;5.33;;;10.20;84.10;;;9.93;75.03;98272.72;5029779;28;20823;-78
2023/04/30 01:09:13;;;;;;;8.23;6.13;;;10.30;84.70;;;10.11;74.24;98291.03;5012728;28;20458;-79
2023/04/30 01:11:56;;;;;;;7.67;5.43;;;10.30;84.70;;;10.10;74.71;98289.38;5032535;28;20441;-81
2023/04/30 01:14:31;;;;;;;7.80;6.07;;;10.30;84.80;;;9.98;74.98;98291.00;5037028;28;20453;-80
2023/04/30 01:17:09;;;;;;;7.97;6.30;;;10.20;84.80;;;9.97;75.33;98289.34;5018166;28;20516;-79
2023/04/30 01:19:42;;;;;;;6.90;6.20;;;10.20;85.00;;;9.99;75.06;98295.38;5034326;28;20460;-77
2023/04/30 01:22:15;;;;;;;9.47;6.27;;;10.20;85.20;;;10.00;75.09;98295.16;5039453;28;20473;-78
2023/04/30 01:25:11;;;;;;;8.20;5.70;;;10.20;85.50;;;10.06;74.80;98290.81;5038245;28;20468;-78
2023/04/30 01:28:03;;;;;;;7.60;6.23;;;10.30;85.60;;;10.27;74.75;98292.50;5035371;28;20485;-79
2023/04/30 01:30:32;;;;;;;9.57;6.90;;;10.40;85.30;;;10.12;74.48;98298.09;5027909;28;20470;-79
2023/04/30 01:32:59;;;;;;;7.50;6.37;;;10.30;85.10;;;10.23;74.52;98285.00;5037275;28;20455;-79
2023/04/30 01:36:05;;;;;;;9.80;7.00;;;10.40;85.30;;;10.15;73.87;98289.56;5041903;28;20452;-79
2023/04/30 01:38:55;;;;;;;9.00;6.23;;;10.40;84.40;;;9.83;73.77;98227.25;5039183;28;20445;-79
2023/04/30 01:41:33;;;;;;;7.47;5.97;;;10.40;84.70;;;10.06;74.33;98290.81;5049192;28;20994;-79
2023/04/30 01:44:16;;;;;;;10.00;6.50;;;10.30;85.00;;;10.29;73.40;98292.28;5057661;28;20451;-80
2023/04/30 01:46:53;;;;;;;9.57;5.87;;;10.40;84.40;;;10.24;74.11;98300.19;5057400;28;20484;-80
2023/04/30 01:49:30;;;;;;;6.70;6.00;;;10.40;84.80;;;10.24;74.02;98300.19;5053180;28;20543;-83
2023/04/30 01:52:03;;;;;;;6.93;6.20;;;10.40;84.50;;;10.17;74.98;98301.00;5034516;28;20454;-78
2023/04/30 01:54:43;;;;;;;8.93;6.77;;;10.30;85.40;;;10.05;75.06;98299.94;5032315;28;20491;-77
2023/04/30 01:57:18;;;;;;;7.17;5.43;;;10.30;85.30;;;10.06;75.53;98309.69;5060438;28;20628;-78
2023/04/30 01:59:47;;;;;;;9.70;6.93;;;10.20;86.20;;;9.99;75.47;98309.69;5053597;28;20445;-77
2023/04/30 02:02:14;;;;;;;8.33;6.70;;;10.20;86.40;;;9.97;75.16;98294.75;5034292;28;20448;-78
2023/04/30 02:04:42;;;;;;;7.73;6.40;;;10.20;86.20;;;9.94;74.89;98311.34;5029185;28;20457;-79
2023/04/30 02:07:09;;;;;;;9.17;7.43;;;10.20;86.30;;;9.78;75.78;98302.56;5014272;28;20453;-79
2023/04/30 02:09:37;;;;;;;8.40;6.93;;;10.10;86.40;;;9.80;75.49;98305.94;5051673;28;20456;-78
2023/04/30 02:12:05;;;;;;;8.70;6.90;;;10.10;86.70;;;9.74;75.49;98277.03;5050317;28;20480;-78
2023/04/30 02:14:32;;;;;;;8.20;6.20;;;10.10;87.00;;;9.62;75.95;98288.41;5040295;28;20499;-78
2023/04/30 02:17:03;;;;;;;8.43;6.93;;;10.10;86.50;;;9.69;76.07;98326.22;5037183;28;21049;-79
2023/04/30 02:19:30;;;;;;;8.20;6.77;;;10.00;87.30;;;9.81;76.99;98331.88;5023333;28;20444;-77
2023/04/30 02:21:57;;;;;;;7.40;6.53;;;10.00;87.90;;;9.81;76.35;98322.94;5023557;28;20453;-79
2023/04/30 02:24:25;;;;;;;8.33;6.63;;;10.00;88.00;;;9.76;76.93;98326.22;5039281;28;20465;-78
2023/04/30 02:26:52;;;;;;;6.60;5.67;;;10.00;88.00;;;9.76;76.77;98307.34;5014657;28;20624;-78
2023/04/30 02:29:20;;;;;;;9.20;6.77;;;10.00;88.30;;;9.80;76.89;98332.06;5040656;28;20889;-79
2023/04/30 02:31:47;;;;;;;10.03;6.70;;;10.00;88.60;;;9.68;77.30;98334.53;5037265;28;20458;-78
2023/04/30 02:34:16;;;;;;;8.37;6.80;;;10.00;88.20;;;9.72;77.11;98328.53;5022760;28;20807;-78
2023/04/30 02:36:43;;;;;;;6.97;5.53;;;10.00;88.40;;;9.31;76.64;98252.00;5039556;28;20446;-78
2023/04/30 02:39:11;;;;;;;8.53;6.40;;;10.00;88.30;;;9.43;76.99;98292.72;5041245;28;20466;-79
2023/04/30 02:41:38;;;;;;;9.80;7.60;;;10.00;88.40;;;9.63;77.46;98325.19;5053755;28;20816;-79
2023/04/30 02:44:05;;;;;;;9.07;6.50;;;9.90;90.00;;;9.95;77.02;98323.81;5044840;28;20465;-79
2023/04/30 02:46:32;;;;;;;8.77;7.30;;;10.00;89.50;;;9.33;76.80;98241.88;5039424;28;20796;-79
2023/04/30 02:49:00;;;;;;;6.97;5.90;;;10.00;89.20;;;9.84;77.26;98323.38;5028656;28;20809;-78
2023/04/30 02:51:31;;;;;;;7.83;6.33;;;10.00;89.30;;;9.70;77.52;98327.06;5037044;28;20459;-78
2023/04/30 02:53:58;;;;;;;8.80;6.80;;;9.90;90.30;;;9.38;78.79;98307.84;5049007;28;20457;-77
2023/04/30 02:56:26;;;;;;;8.17;6.70;;;9.90;90.30;;;9.53;78.45;98332.81;5031884;28;20854;-79
2023/04/30 02:58:53;;;;;;;9.83;7.10;;;9.80;90.60;;;9.54;77.54;98331.78;5047411;28;20457;-79
2023/04/30 03:01:21;;;;;;;9.10;6.03;;;9.90;90.50;;;9.56;78.46;98332.41;5046437;28;20457;-79
2023/04/30 03:03:48;;;;;;;7.53;5.87;;;9.80;90.90;;;9.70;77.58;98317.06;5048756;28;20454;-79
2023/04/30 03:06:15;;;;;;;7.20;6.10;;;9.90;90.80;;;9.59;78.35;98326.59;5017323;28;20472;-78
2023/04/30 03:08:44;;;;;;;10.23;6.77;;;9.80;90.70;;;9.60;78.57;98330.13;5047483;28;21718;-78
2023/04/30 03:11:11;;;;;;;8.80;6.13;;;9.80;91.20;;;9.56;79.15;98318.91;5028538;28;20504;-79
2023/04/30 03:13:38;;;;;;;8.00;6.27;;;9.80;91.40;;;9.46;79.10;98331.94;5056941;28;20463;-79
2023/04/30 03:16:06;;;;;;;8.70;7.13;;;9.80;91.20;;;9.34;79.39;98328.97;5044728;28;20449;-80
2023/04/30 03:18:33;;;;;;;7.60;6.17;;;9.70;91.30;;;9.38;79.32;98335.63;5056385;28;20471;-79
2023/04/30 03:21:00;;;;;;;8.67;7.27;;;9.70;91.70;;;9.35;80.00;98328.78;5033089;28;20439;-78
2023/04/30 03:23:28;;;;;;;11.13;7.27;;;9.70;91.60;;;9.46;79.21;98337.31;5041633;28;20484;-80
2023/04/30 03:25:57;;;;;;;9.00;6.57;;;9.70;91.80;;;9.59;78.98;98331.97;5026522;28;20473;-77
2023/04/30 03:28:24;;;;;;;8.40;6.67;;;9.70;91.90;;;9.57;79.23;98331.34;5056799;28;20558;-78
2023/04/30 03:30:52;;;;;;;6.90;6.20;;;9.80;91.50;;;9.45;79.52;98330.25;5025057;28;20464;-77
2023/04/30 03:33:19;;;;;;;6.87;5.80;;;9.80;91.60;;;9.65;78.75;98322.25;5062058;28;20452;-80
2023/04/30 03:35:46;;;;;;;5.67;5.10;;;9.80;91.40;;;9.79;77.58;98328.56;5049501;28;20459;-78
2023/04/30 03:38:14;;;;;;;10.13;6.60;;;9.90;91.30;;;9.82;77.18;98324.59;5027681;28;20461;-79
2023/04/30 03:40:41;;;;;;;8.87;7.30;;;9.90;91.20;;;9.28;77.91;98262.38;5032663;28;20506;-79
2023/04/30 03:43:10;;;;;;;9.37;7.37;;;9.90;90.60;;;9.35;76.78;98261.38;5029171;28;20489;-79
2023/04/30 03:45:37;;;;;;;9.40;7.40;;;10.00;89.20;;;9.31;76.54;98254.69;5030130;28;20466;-78
2023/04/30 03:48:05;;;;;;;9.50;7.60;;;10.00;88.80;;;9.75;77.52;98329.97;5046215;28;21014;-78
2023/04/30 03:50:32;;;;;;;9.00;7.23;;;10.00;89.00;;;9.77;76.70;98328.75;5047610;28;20458;-77
2023/04/30 03:53:00;;;;;;;8.83;7.27;;;10.00;88.60;;;9.74;76.65;98328.31;5031549;28;20564;-78
2023/04/30 03:55:27;;;;;;;8.97;7.37;;;10.00;88.80;;;9.73;76.80;98329.34;5047290;28;20544;-78
2023/04/30 03:57:55;;;;;;;10.30;6.63;;;10.00;88.80;;;9.63;77.03;98319.78;5031145;28;20445;-77
2023/04/30 04:00:24;;;;;;;11.20;7.87;;;9.90;90.20;;;9.64;77.24;98318.75;5049245;28;20460;-78
2023/04/30 04:02:51;;;;;;;10.23;7.90;;;9.90;89.90;;;9.62;77.42;98331.56;5062580;28;20454;-77
2023/04/30 04:05:18;;;;;;;9.00;7.07;;;9.90;90.20;;;9.16;77.19;98240.53;5058065;28;20471;-78
2023/04/30 04:07:46;;;;;;;8.43;6.87;;;9.90;90.20;;;9.65;76.88;98308.78;5049766;28;20705;-79
2023/04/30 04:10:13;;;;;;;9.00;7.40;;;9.80;90.50;;;9.47;78.03;98330.88;5013773;28;20450;-78
2023/04/30 04:12:40;;;;;;;9.20;7.43;;;9.70;90.50;;;9.50;78.10;98320.53;5037869;28;20450;-78
2023/04/30 04:15:10;;;;;;;8.40;7.30;;;9.80;90.70;;;9.54;77.76;98331.78;5003118;28;20460;-78
2023/04/30 04:17:38;;;;;;;11.17;8.20;;;9.70;90.90;;;9.49;78.50;98337.75;5032955;28;20452;-79
2023/04/30 04:20:07;;;;;;;11.90;7.53;;;9.60;91.20;;;9.53;78.29;98326.56;5021146;28;20457;-78
2023/04/30 04:22:35;;;;;;;9.97;8.23;;;9.70;91.30;;;9.69;77.10;98320.00;5020363;28;20518;-78
2023/04/30 04:25:02;;;;;;;10.10;7.80;;;9.80;90.80;;;9.63;77.19;98333.28;5047942;28;20458;-79
2023/04/30 04:27:29;;;;;;;9.63;8.00;;;9.80;90.90;;;9.72;77.18;98342.00;5037601;28;21078;-78
2023/04/30 04:29:57;;;;;;;11.97;8.50;;;9.90;90.30;;;9.85;76.95;98334.97;5036531;28;20465;-78
2023/04/30 04:32:24;;;;;;;8.53;7.40;;;10.00;90.00;;;9.69;76.64;98331.59;5048295;28;20461;-79
2023/04/30 04:34:54;;;;;;;10.50;7.90;;;9.90;90.20;;;9.56;77.04;98318.91;5037119;28;20527;-77
2023/04/30 04:37:21;;;;;;;11.03;8.30;;;9.90;90.10;;;9.55;76.20;98278.63;5022199;28;21256;-77
2023/04/30 04:39:48;;;;;;;8.37;7.57;;;10.00;89.40;;;9.73;76.98;98326.66;5014700;28;20499;-78
2023/04/30 04:42:16;;;;;;;9.03;8.03;;;10.00;89.40;;;9.92;76.66;98355.56;5042988;28;20441;-77
2023/04/30 04:44:43;;;;;;;10.97;7.93;;;10.10;88.70;;;10.00;76.71;98345.63;5028143;28;20461;-79
2023/04/30 04:47:11;;;;;;;9.47;7.90;;;10.10;88.90;;;9.49;75.52;98266.81;5047586;28;20612;-77
2023/04/30 04:49:38;;;;;;;12.13;8.93;;;10.10;89.00;;;9.71;74.96;98274.75;5058200;28;20458;-77
2023/04/30 04:52:07;;;;;;;8.43;6.73;;;10.30;87.70;;;10.10;75.89;98343.38;5051685;28;20446;-78
2023/04/30 04:54:34;;;;;;;9.47;7.10;;;10.20;87.80;;;10.26;74.10;98342.13;5034095;28;20495;-75
2023/04/30 04:57:02;;;;;;;9.40;7.60;;;10.40;87.00;;;10.48;73.82;98350.91;5027807;28;20529;-77
2023/04/30 04:59:30;;;;;;;8.93;8.03;;;10.50;86.30;;;10.50;73.51;98353.44;5041502;28;20486;-77
2023/04/30 05:01:57;;;;;;;9.77;7.60;;;10.60;85.80;;;10.36;73.33;98339.03;5038618;28;20972;-78
2023/04/30 05:04:24;;;;;;;8.57;7.20;;;10.60;85.60;;;9.83;73.42;98267.72;5048210;28;20487;-78
2023/04/30 05:06:53;;;;;;;8.13;7.30;;;10.60;85.50;;;10.57;73.01;98356.13;5025484;28;20464;-78
2023/04/30 05:09:23;;;;;;;7.33;6.27;;;10.70;84.90;;;10.49;72.63;98344.47;5046072;28;20451;-79
2023/04/30 05:11:50;;;;;;;9.30;6.97;;;10.80;84.90;;;10.49;72.64;98335.56;5024615;28;20445;-78
2023/04/30 05:14:19;;;;;;;9.07;7.17;;;10.80;84.80;;;10.83;72.40;98352.59;5052546;28;20447;-78
2023/04/30 05:16:48;;;;;;;10.17;7.93;;;10.90;84.10;;;10.82;71.84;98358.19;5038861;28;20448;-79
2023/04/30 05:19:15;;;;;;;9.10;7.53;;;11.00;84.10;;;10.94;71.53;98353.81;5038168;28;20479;-80
2023/04/30 05:21:42;;;;;;;7.90;6.17;;;11.10;83.50;;;11.07;70.82;98362.97;5012853;28;20444;-79
2023/04/30 05:24:10;;;;;;;8.73;7.40;;;11.20;83.30;;;11.17;70.19;98363.38;5042462;28;20463;-77
2023/04/30 05:26:38;;;;;;;8.50;6.93;;;11.30;83.20;;;10.98;70.64;98355.06;5022733;28;20472;-80
2023/04/30 05:29:05;;;;;;;7.30;6.53;;;11.30;82.30;;;11.02;69.64;98350.06;5022064;28;20477;-79
2023/04/30 05:31:33;;;;;;;10.13;8.40;;;11.40;82.30;;;10.85;69.84;98301.03;5041277;28;20954;-81
2023/04/30 05:34:00;;;;;;;12.07;8.40;;;11.40;82.10;;;11.10;69.50;98341.75;5050488;28;20537;-81
2023/04/30 05:36:28;;;;;;;8.37;7.53;;;11.50;81.90;;;11.39;68.85;98355.00;5049394;28;20445;-80
2023/04/30 05:38:55;;;;;;;9.70;7.60;;;11.60;81.60;;;11.40;68.91;98362.91;5026267;28;20841;-76
2023/04/30 05:41:22;;;;;;;9.30;7.80;;;11.70;81.40;;;11.59;68.45;98355.75;5041123;28;20452;-79
2023/04/30 05:43:51;;;;;;;9.03;7.50;;;11.90;81.30;;;11.75;67.62;98372.56;5050418;28;20816;-79
2023/04/30 05:46:18;;;;;;;7.93;6.43;;;12.00;80.60;;;11.94;66.87;98378.13;5071519;28;20458;-80
2023/04/30 05:48:47;;;;;;;8.97;8.07;;;12.10;80.20;;;11.94;66.83;98373.50;5070697;28;20429;-79
2023/04/30 05:51:14;;;;;;;8.80;6.37;;;12.30;80.00;;;11.89;65.65;98328.13;5054822;28;20976;-79
2023/04/30 05:53:42;;;;;;;7.90;6.80;;;12.30;79.40;;;12.01;66.37;98376.19;5063565;28;20458;-81
2023/04/30 05:56:09;;;;;;;7.67;6.87;;;12.40;79.40;;;12.26;65.58;98364.63;5049350;28;20439;-80
2023/04/30 05:58:37;;;;;;;8.50;7.40;;;12.50;79.10;;;12.62;64.59;98363.13;5045211;28;20445;-79
2023/04/30 06:01:09;;;;;;;8.83;7.20;;;12.80;78.90;;;12.65;63.78;98356.44;5052252;28;20968;-81
2023/04/30 06:03:37;;;;;;;8.03;6.50;;;13.00;77.90;;;11.98;64.69;98333.31;5051348;28;20444;-81
2023/04/30 06:06:05;;;;;;;9.43;7.30;;;12.90;77.40;;;12.28;64.71;98367.97;5037348;28;21252;-79
2023/04/30 06:08:32;;;;;;;8.17;6.77;;;12.70;77.50;;;12.07;64.99;98375.38;5055093;28;20560;-78
2023/04/30 06:11:02;;;;;;;8.90;7.13;;;12.70;77.50;;;12.00;64.72;98350.16;5029436;28;20449;-80
2023/04/30 06:13:32;;;;;;;7.03;6.23;;;12.60;77.70;;;12.29;64.67;98356.91;5036563;28;20474;-79
2023/04/30 06:16:00;;;;;;;7.93;7.13;;;12.70;78.00;;;12.58;63.74;98372.75;5035024;28;20541;-74
2023/04/30 06:18:30;;;;;;;8.53;7.40;;;12.90;77.50;;;12.22;64.22;98374.25;5038981;28;20956;-78
2023/04/30 06:20:57;;;;;;;8.17;6.27;;;12.80;76.90;;;12.06;64.35;98365.59;5049551;28;20464;-76
2023/04/30 06:23:25;;;;;;;7.80;6.93;;;12.60;77.10;;;11.64;64.93;98373.25;5015979;28;20475;-74
2023/04/30 06:25:52;;;;;;;8.83;6.43;;;12.30;76.70;;;11.96;64.44;98366.00;5042535;28;20789;-80
2023/04/30 06:28:20;;;;;;;8.17;6.30;;;12.30;77.40;;;11.81;64.67;98369.00;5039628;28;21420;-75
2023/04/30 06:30:47;;;;;;;6.97;6.30;;;12.30;77.20;;;11.70;65.23;98359.69;5039614;28;21006;-77
2023/04/30 06:33:19;;;;;;;8.10;6.77;;;12.20;77.30;;;11.60;65.51;98357.44;5048656;28;20470;-75
2023/04/30 06:35:49;;;;;;;8.50;7.03;;;12.10;77.40;;;11.76;65.91;98360.72;5012768;28;20464;-83
2023/04/30 06:38:18;;;;;;;8.17;7.07;;;12.00;77.90;;;11.94;64.32;98362.69;5033457;28;20529;-81
2023/04/30 06:40:45;;;;;;;8.87;7.30;;;12.20;77.50;;;11.90;64.05;98367.72;5052145;28;20933;-73
2023/04/30 06:43:12;;;;;;;7.97;7.17;;;12.20;77.00;;;11.84;63.99;98356.94;5040172;28;20456;-81
2023/04/30 06:45:40;;;;;;;7.33;6.13;;;12.20;76.60;;;12.10;63.36;98363.25;5029701;28;20456;-80
2023/04/30 06:48:08;;;;;;;7.43;6.73;;;12.40;76.80;;;12.24;62.77;98362.13;5017435;28;21331;-75
2023/04/30 06:50:42;;;;;;;7.53;6.43;;;12.50;76.40;;;12.05;62.29;98342.25;5045256;28;20556;-79
2023/04/30 06:53:11;;;;;;;6.77;5.80;;;12.50;75.70;;;12.04;62.76;98362.25;5053721;28;20456;-81
2023/04/30 06:55:38;;;;;;;7.77;6.30;;;12.40;75.80;;;12.16;62.38;98363.22;5050717;28;21032;-82
2023/04/30 06:58:06;;;;;;;7.30;5.57;;;12.50;75.80;;;12.33;62.06;98374.38;5050011;28;20506;-79
2023/04/30 07:00:34;;;;;;;9.67;6.57;;;12.50;75.70;;;12.38;61.61;98367.47;5030205;28;20445;-79
2023/04/30 07:03:04;;;;;;;9.47;7.27;;;12.60;75.30;;;12.25;61.10;98357.56;5048690;28;20457;-83
2023/04/30 07:05:31;;;;;;;8.13;6.47;;;12.60;74.60;;;12.23;61.49;98375.91;5048096;28;20470;-80
2023/04/30 07:08:01;;;;;;;7.43;5.80;;;12.60;74.60;;;12.19;61.36;98370.09;5031948;28;20485;-80
2023/04/30 07:10:30;;;;;;;7.37;6.57;;;12.50;74.40;;;12.15;61.10;98366.97;5048240;28;21175;-81
2023/04/30 07:12:58;;;;;;;6.40;5.80;;;12.50;74.10;;;12.27;61.36;98366.28;5057773;28;20450;-76
2023/04/30 07:15:25;;;;;;;8.30;5.53;;;12.50;74.40;;;12.37;60.86;98366.66;5043594;28;21180;-77
2023/04/30 07:17:52;;;;;;;6.40;5.80;;;12.60;74.30;;;12.46;61.24;98368.03;5047773;28;20449;-83
2023/04/30 07:20:20;;;;;;;7.90;6.40;;;12.70;74.50;;;12.66;60.32;98369.78;5031227;28;20455;-82
2023/04/30 07:22:47;;;;;;;6.23;5.63;;;12.90;74.20;;;12.49;59.74;98363.22;5034212;28;20438;-83
2023/04/30 07:25:14;;;;;;;6.63;5.80;;;12.90;73.20;;;12.47;59.90;98320.91;5042990;28;21260;-83
2023/04/30 07:27:43;;;;;;;6.70;6.00;;;13.00;73.50;;;12.83;59.26;98370.06;5059228;28;20484;-81
2023/04/30 07:30:11;;;;;;;7.10;5.70;;;13.00;72.80;;;12.57;58.82;98323.13;5019289;28;22119;-75
2023/04/30 07:32:39;;;;;;;6.80;5.70;;;13.10;72.50;;;13.18;59.17;98369.53;5056785;28;20779;-83
2023/04/30 07:35:09;;;;;;;7.97;6.10;;;13.30;73.20;;;13.29;57.94;98362.53;5057441;28;20705;-80
2023/04/30 07:37:36;;;;;;;7.67;5.57;;;13.40;72.10;;;13.38;56.91;98370.38;5048432;28;20956;-79
2023/04/30 07:40:04;;;;;;;6.27;5.37;;;13.60;70.80;;;13.24;55.81;98366.97;5038280;28;20486;-77
2023/04/30 07:42:32;;;;;;;5.93;4.97;;;13.50;69.30;;;13.26;55.16;98368.41;5048983;28;20470;-81
2023/04/30 07:45:03;;;;;;;6.03;4.80;;;13.50;68.40;;;13.26;55.95;98362.97;5035993;28;20454;-85
2023/04/30 07:47:30;;;;;;;5.73;5.13;;;13.50;68.70;;;13.43;56.00;98362.41;5029489;28;20473;-72
2023/04/30 07:49:57;;;;;;;6.50;5.80;;;13.60;69.10;;;13.33;56.79;98357.47;5029530;28;20517;-82
2023/04/30 07:52:24;;;;;;;5.57;5.07;;;13.60;69.50;;;13.55;55.35;98363.31;5048251;28;20446;-83
2023/04/30 07:54:52;;;;;;;8.30;5.03;;;13.70;68.50;;;13.56;53.90;98351.41;5043318;28;20514;-82
2023/04/30 07:57:19;;;;;;;8.10;5.40;;;13.80;67.00;;;13.60;54.12;98362.66;5052035;28;20464;-79
2023/04/30 07:59:47;;;;;;;7.07;5.57;;;13.90;66.90;;;13.69;54.05;98371.31;5041889;28;20462;-70
2023/04/30 08:02:16;;;;;;;6.40;5.07;;;14.00;66.50;;;13.85;53.58;98356.31;5047008;28;20458;-82
2023/04/30 08:04:43;;;;;;;5.13;4.60;;;14.10;66.00;;;14.11;52.00;98357.81;5023209;28;20480;-79
2023/04/30 08:07:11;;;;;;;6.03;4.67;;;14.30;64.90;;;14.53;51.86;98353.47;5050247;28;21301;-79
2023/04/30 08:09:38;;;;;;;5.20;4.80;;;14.50;64.70;;;14.70;51.14;98353.59;5050690;28;20462;-80
2023/04/30 08:12:06;;;;;;;5.10;4.60;;;14.80;64.20;;;14.73;50.79;98361.34;5067125;28;20445;-77
2023/04/30 08:14:33;;;;;;;5.20;4.50;;;14.90;63.20;;;14.58;50.80;98356.31;5066194;28;20471;-80
2023/04/30 08:17:01;;;;;;;4.43;4.00;;;14.90;62.20;;;14.81;49.03;98358.28;5064107;28;20449;-81
2023/04/30 08:19:31;;;;;;;4.70;4.20;;;15.00;60.70;;;14.90;49.48;98352.50;5032983;28;20960;-83
2023/04/30 08:21:59;;;;;;;4.33;3.93;;;15.00;60.80;;;14.91;48.60;98354.97;5022734;28;20451;-80
2023/04/30 08:24:27;;;;;;;4.63;4.13;;;15.20;59.90;;;14.91;48.49;98356.88;5032584;28;20485;-75
2023/04/30 08:26:54;;;;;;;5.77;4.50;;;15.10;59.20;;;14.96;48.46;98355.09;5053416;28;20533;-76
2023/04/30 08:29:21;;;;;;;5.57;4.37;;;15.20;58.70;;;15.29;45.30;98347.38;5050663;28;20931;-81
2023/04/30 08:31:49;;;;;;;3.23;2.93;;;15.40;56.60;;;15.75;45.01;98347.56;5061521;28;20456;-80
2023/04/30 08:34:16;;;;;;;3.77;3.47;;;15.70;56.50;;;15.63;43.84;98350.31;5047757;28;20545;-79
2023/04/30 08:36:45;;;;;;;6.90;5.00;;;16.00;54.20;;;15.63;44.52;98338.56;5045898;28;20446;-80
2023/04/30 08:39:12;;;;;;;3.80;3.50;;;15.90;54.40;;;15.55;44.43;98328.88;5052027;28;20797;-77
2023/04/30 08:41:42;;;;;;;3.43;3.13;;;15.90;54.30;;;15.98;44.41;98346.69;5058370;28;20451;-75
2023/04/30 08:44:12;;;;;;;4.00;3.70;;;16.10;54.60;;;16.02;41.43;98336.13;5023504;28;20452;-77
2023/04/30 08:46:40;;;;;;;3.73;2.90;;;16.30;52.00;;;16.24;41.79;98349.91;5035375;28;20947;-77
2023/04/30 08:49:08;;;;;;;3.47;3.07;;;16.40;51.70;;;16.25;40.32;98312.53;5029481;28;20451;-76
2023/04/30 08:51:35;;;;;;;3.60;2.83;;;16.60;50.70;;;16.69;39.65;98345.47;5052022;28;20456;-77
2023/04/30 08:54:04;;;;;;;2.83;2.63;;;16.80;50.00;;;16.77;37.41;98348.88;5023694;28;20454;-74
2023/04/30 08:56:33;;;;;;;3.30;2.97;;;17.10;47.90;;;16.17;39.82;98353.84;5029578;28;20448;-75
2023/04/30 08:59:01;;;;;;;2.97;2.77;;;16.70;48.60;;;16.09;37.31;98363.22;5029273;28;20962;-73
2023/04/30 09:01:30;;;;;;;3.10;2.40;;;16.50;46.90;;;16.12;39.34;98349.91;5019490;28;20465;-75
2023/04/30 09:03:58;;;;;;;2.80;2.50;;;16.30;47.60;;;16.62;39.44;98347.56;5040679;28;20459;-75
2023/04/30 09:06:26;;;;;;;3.53;2.77;;;16.70;48.70;;;16.41;38.90;98352.63;5039531;28;20805;-78
2023/04/30 09:08:53;;;;;;;3.13;2.83;;;16.80;47.70;;;16.55;39.36;98350.44;5012357;28;20466;-75
2023/04/30 09:11:27;;;;;;;3.20;2.90;;;16.80;48.20;;;16.75;39.59;98342.81;5042792;28;20523;-79
2023/04/30 09:13:57;;;;;;;2.90;2.63;;;16.90;48.60;;;16.83;38.83;98339.69;5061805;28;20477;-77
2023/04/30 09:16:26;;;;;;;3.40;2.87;;;17.00;47.90;;;16.95;38.64;98336.88;5019451;28;20457;-75
2023/04/30 09:18:53;;;;;;;2.73;2.53;;;17.20;47.60;;;16.50;37.91;98341.34;5053776;28;20685;-74
2023/04/30 09:21:32;;;;;;;2.77;2.50;;;16.90;46.20;;;16.16;39.14;98346.75;5053642;28;20466;-76
2023/04/30 09:24:02;;;;;;;2.53;2.33;;;16.60;46.80;;;16.54;38.75;98353.41;5043863;28;20514;-76
2023/04/30 09:26:34;;;;;;;3.00;2.70;;;16.70;47.10;;;16.60;38.00;98346.13;5052765;28;20493;-75
2023/04/30 09:29:06;;;;;;;2.93;2.63;;;16.80;46.50;;;16.02;38.28;98341.56;5032121;28;20471;-75
2023/04/30 09:31:35;;;;;;;3.63;2.83;;;16.60;45.40;;;16.44;38.17;98343.16;5025745;28;20468;-75
2023/04/30 09:34:02;;;;;;;2.70;2.10;;;16.60;46.20;;;16.38;37.81;98347.69;5049604;28;20464;-75
2023/04/30 09:36:30;;;;;;;2.70;2.50;;;16.60;45.80;;;16.60;38.30;98337.94;5049721;28;20468;-75
2023/04/30 09:39:06;;;;;;;3.57;2.67;;;16.70;46.50;;;16.41;38.97;98284.47;5031079;28;20932;-76
2023/04/30 09:41:35;;;;;;;2.33;1.80;;;16.80;47.10;;;16.36;37.65;98347.09;5050534;28;20435;-73
2023/04/30 09:44:02;;;;;;;2.17;1.97;;;16.80;45.60;;;16.38;37.94;98341.41;5058986;28;20457;-74
2023/04/30 09:46:36;;;;;;;3.00;2.33;;;16.60;45.70;;;16.65;37.22;98338.88;5040164;28;20515;-73
2023/04/30 09:49:06;;;;;;;3.07;2.77;;;16.80;45.70;;;16.60;37.39;98332.50;5037553;28;20471;-77
2023/04/30 09:51:34;;;;;;;2.90;2.70;;;16.90;45.60;;;16.42;38.69;98335.19;5055777;28;20447;-77
2023/04/30 09:54:03;;;;;;;2.67;2.37;;;16.70;46.00;;;16.26;38.54;98265.13;5037247;28;20454;-76
2023/04/30 09:56:38;;;;;;;2.80;2.60;;;16.80;46.30;;;16.69;37.93;98331.84;5066331;28;20476;-76
2023/04/30 09:59:08;;;;;;;2.67;2.47;;;16.90;46.00;;;17.15;37.26;98320.00;5032717;28;20447;-76
2023/04/30 10:01:37;;;;;;;3.10;2.50;;;17.20;46.00;;;16.82;36.99;98336.13;5045859;28;20460;-75
2023/04/30 10:04:06;;;;;;;2.53;2.33;;;17.20;45.20;;;16.45;38.20;98333.88;5051245;28;20441;-75
2023/04/30 10:06:34;;;;;;;4.23;3.00;;;16.90;45.60;;;16.82;37.41;98338.03;5049004;28;20456;-75
2023/04/30 10:09:05;;;;;;;2.90;2.67;;;16.90;45.60;;;17.02;36.80;98312.16;5061882;28;20709;-77
2023/04/30 10:11:37;;;;;;;2.37;2.20;;;17.30;45.30;;;17.25;36.09;98284.66;5056851;28;20459;-76
2023/04/30 10:14:10;;;;;;;2.97;2.67;;;17.50;44.90;;;17.31;36.14;98317.47;5041508;28;20467;-75
2023/04/30 10:16:44;;;;;;;2.63;2.43;;;17.60;45.00;;;17.37;36.08;98313.75;5043151;28;20440;-76
2023/04/30 10:19:16;;;;;;;2.67;2.47;;;17.70;44.70;;;16.64;36.60;98299.03;5047934;28;20454;-78
2023/04/30 10:21:47;;;;;;;2.80;2.57;;;17.30;44.70;;;16.45;38.39;98300.31;5048689;28;20944;-76
2023/04/30 10:24:18;;;;;;;2.33;2.13;;;16.80;45.40;;;16.98;38.26;98315.38;5021828;28;21159;-75
2023/04/30 10:26:48;;;;;;;3.50;2.97;;;17.20;46.00;;;16.60;38.17;98308.75;5054490;28;20450;-76
2023/04/30 10:29:16;;;;;;;2.80;2.50;;;17.00;45.50;;;16.85;36.90;98311.09;5045610;28;20521;-76